KEWK/EWK METAR and TAF weather

Enter ICAO airport designator
Station Type Date Time Source
KEWK METAR 2021/04/18 00:56 UTC NOAA

KEWK 180056Z AUTO 33006KT 10SM CLR 08/04 A3011 RMK AO2 SLP200 T00780039


Station Type Date Time Source
KEWK Decoded METAR 2021/04/18 00:56 UTC NOAA

Newton, Newton City/County Airport, KS, United States (KEWK) 38-03N 097-17W
Apr 17, 2021 - 08:56 PM EDT / 2021.04.18 0056 UTC
Wind: from the NNW (330 degrees) at 7 MPH (6 KT):0
Visibility: 10 mile(s):0
Sky conditions: clear
Temperature: 46.0 F (7.8 C)
Dew Point: 39.0 F (3.9 C)
Relative Humidity: 76%
Pressure (altimeter): 30.11 in. Hg (1019 hPa)
ob: KEWK 180056Z AUTO 33006KT 10SM CLR 08/04 A3011 RMK AO2 SLP200 T00780039
cycle: 1

Station Type Date Time Source
KEWK TAF UTC NOAA

Error!

Example: see airport list